Houghton County Memorial Airport
KCMX : now visible

Airfield :











YOU CAN JOIN US ON...

 
LOGIN :

Register | Disclaimer

   EN    FR    IT 

 









Legend :    VFR   Marginal VFR   IFR   Intensive IFR   Very Intensive IFR
Visi :
Ceiling :
>= 8 km
>= 3000ft
5 to 8 km
1000 to 3000 ft
1500m to 5 km
500 to 1000 ft
800 to 1500m
200 to 500 ft
< 800m
< 200 ft
Symbols :   Thunderstorms  Fog  Heavy snow  Heavy precipitations  Wind > 20 kt







- Airport Elevation : 1095 ft
- IATA code : CMX


KCMX - Houghton County Memorial

CURRENT METAR :
  • 160553Z AUTO 31003KT 7SM CLR 13/12 A3004 RMK AO2 SLP171 T01280117 10161 20106 50005

EXPIRED METARs :
  • 160536Z AUTO 31006KT 10SM SCT006 12/11 A3003 RMK AO2 T01220111
  • 160513Z AUTO 29003KT 10SM BKN006 12/11 A3004 RMK AO2 CIG 004V008 T01220106
  • 160459Z AUTO 25003KT 1 3/4SM BR FEW008 12/11 A3004 RMK AO2 T01220106
  • 160453Z AUTO 00000KT 2SM BR CLR 12/10 A3004 RMK AO2 SLP173 T01170100 401940106
  • 160405Z AUTO 00000KT 4SM BR CLR 11/10 A3003 RMK AO2 T01110100
  • 160353Z AUTO 00000KT 2SM BR CLR 12/11 A3003 RMK AO2 VIS 3/4V5 SLP171 T01170106
  • 160335Z AUTO 30004KT 4SM BR CLR 13/12 A3003 RMK AO2 T01280117
  • 160313Z AUTO 00000KT 9SM SCT019 14/12 A3003 RMK AO2 T01390122

TAF KCMX
Valid from the 16 at 06:00 until the 17 at 06:00 UTC


160531Z 1606/1706 VRB03KT P6SM SCT006
TEMPO 1606/1609 2SM BR BKN006
FM160900 00000KT 1/2SM FG SCT006
FM161300 VRB03KT 3SM BR SCT022
FM161500 VRB03KT P6SM SCT060
No reported NOTAMs for that airfield.



MET'MAP, your aeronautical weather chart ! - Copyright ORBIFLY December 2007 - Disclaimer

ORBIFLY MET'MAP TEAM :

Programming & Development : Alexandra Zaïnal
Concept & Development : Baudouin d'Aumeries
Co-Development & Prog : Marc-Olivier Méhu
Technical & hardware support : Manuel Goepfert

Contact : metmap@orbifly.com




SOURCES & CREDITS :

   NOAA       Earth
Advisory